GW3840 Weather Reports


Display with metric or nautical units.
time (UTC)temp
F
wind
direction
speed
MPH
gust
MPH
rain 1hr
in
rain 24hr
in
rain mn
in
humidity
%
barometer
mb
20240621232216 71 94 3.0 4.0 0.00 0.00 0.00 85 1018.1
20240621231714 70 89 1.0 4.0 0.00 0.00 0.00 86 1018.2
20240621231213 70 108 2.0 4.0 0.00 0.00 0.00 85 1018.4
20240621230712 70 64 2.0 8.0 0.00 0.00 0.00 86 1018.5
20240621230211 70 125 3.0 7.0 0.00 0.00 0.00 85 1018.6
20240621225710 70 92 2.0 4.0 0.00 0.00 0.00 85 1018.8
20240621225209 70 117 1.0 3.0 0.00 0.00 0.00 86 1019.0
20240621224708 70 97 6.0 8.0 0.00 0.00 0.00 85 1018.9
20240621224207 70 99 2.0 4.0 0.00 0.00 0.00 86 1019.1
20240621223705 70 52 3.0 6.0 0.00 0.00 0.00 86 1019.0
20240621223203 70 85 2.0 3.0 0.00 0.00 0.00 87 1019.2
20240621222702 70 102 2.0 3.0 0.00 0.00 0.00 86 1019.6
20240621222201 70 133 0.0 4.0 0.00 0.00 0.00 87 1019.4
20240621221659 70 121 5.0 7.0 0.00 0.00 0.00 86 1019.2
20240621221158 70 99 4.0 6.0 0.00 0.00 0.00 86 1019.4
20240621220655 70 93 3.0 6.0 0.00 0.00 0.00 87 1019.3
20240621220148 70 88 1.0 1.0 0.00 0.00 0.00 87 1019.4
20240621215647 70 129 0.0 2.0 0.00 0.00 0.00 87 1019.5
20240621215146 70 103 1.0 2.0 0.00 0.00 0.00 86 1019.6
20240621214644 70 88 3.0 3.0 0.00 0.00 0.00 85 1019.6
20240621214144 70 143 0.0 6.0 0.00 0.00 0.00 87 1019.6
20240621213643 70 153 4.0 6.0 0.00 0.00 0.00 85 1019.9
20240621213142 70 174 2.0 3.0 0.00 0.00 0.00 86 1019.7
20240621212641 70 147 2.0 8.0 0.00 0.00 0.00 85 1020.0
20240621212139 70 129 2.0 6.0 0.00 0.00 0.00 86 1019.9
20240621211638 70 108 5.0 7.0 0.00 0.00 0.00 85 1019.6
20240621211137 71 154 3.0 4.0 0.00 0.00 0.00 85 1019.9
20240621210635 70 161 1.0 2.0 0.00 0.00 0.00 86 1019.9
20240621210135 70 55 4.0 7.0 0.00 0.00 0.00 86 1020.1
20240621205633 70 103 3.0 4.0 0.00 0.00 0.00 87 1020.1
20240621205132 69 156 2.0 3.0 0.00 0.00 0.00 87 1020.2
20240621204631 69 130 2.0 6.0 0.00 0.00 0.00 87 1020.3
20240621204130 70 111 1.0 4.0 0.00 0.00 0.00 88 1020.3
20240621203629 69 85 2.0 3.0 0.00 0.00 0.00 86 1020.1
20240621203127 69 139 3.0 6.0 0.00 0.00 0.00 86 1020.2
20240621202626 70 90 4.0 9.0 0.00 0.00 0.00 85 1020.3
20240621202126 70 64 3.0 4.0 0.00 0.00 0.00 87 1020.3
20240621201625 70 118 3.0 6.0 0.00 0.00 0.00 85 1020.4
20240621201125 70 105 2.0 4.0 0.00 0.00 0.00 87 1020.5
20240621200625 69 131 1.0 8.0 0.00 0.00 0.00 88 1020.5
20240621200123 69 117 5.0 9.0 0.00 0.00 0.00 88 1020.6
20240621195622 69 81 2.0 8.0 0.00 0.00 0.00 87 1020.8
20240621195120 70 88 2.0 6.0 0.00 0.00 0.00 87 1020.9
20240621194620 69 117 3.0 8.0 0.00 0.00 0.00 87 1021.0
20240621194118 70 61 6.0 10.0 0.00 0.00 0.00 87 1021.4
20240621193617 70 75 2.0 4.0 0.00 0.00 0.00 86 1021.1
20240621193115 69 86 3.0 4.0 0.00 0.00 0.00 87 1021.4
20240621192614 69 80 3.0 6.0 0.00 0.00 0.00 87 1021.2
20240621192112 69 133 4.0 7.0 0.00 0.00 0.00 87 1021.5
20240621191611 69 94 0.0 3.0 0.00 0.00 0.00 88 1021.4
20240621191110 69 109 3.0 6.0 0.00 0.00 0.00 87 1021.6
20240621190610 71 157 4.0 9.0 0.00 0.00 0.00 85 1021.7
20240621190108 71 99 2.0 6.0 0.00 0.00 0.00 85 1021.9
20240621185607 71 63 4.0 10.0 0.00 0.00 0.00 84 1021.6
20240621185105 71 79 5.0 9.0 0.00 0.00 0.00 83 1021.5
20240621184605 70 147 9.0 11.0 0.00 0.00 0.00 84 1021.5
20240621184103 70 92 2.0 6.0 0.00 0.00 0.00 86 1021.5
20240621183602 69 62 5.0 6.0 0.00 0.00 0.00 86 1021.6
20240621183101 69 89 4.0 6.0 0.00 0.00 0.00 86 1021.9
20240621182559 70 84 3.0 4.0 0.00 0.00 0.00 86 1021.8
20240621182057 70 87 4.0 8.0 0.00 0.00 0.00 86 1021.9
20240621181558 69 115 3.0 9.0 0.00 0.00 0.00 86 1022.1
20240621181057 69 91 4.0 6.0 0.00 0.00 0.00 86 1022.0
20240621180555 69 78 3.0 3.0 0.00 0.00 0.00 87 1022.2
20240621180053 69 80 3.0 3.0 0.00 0.00 0.00 88 1022.5
20240621175550 68 147 3.0 4.0 0.00 0.00 0.00 87 1022.1
20240621175050 69 57 4.0 6.0 0.00 0.00 0.00 87 1022.1
20240621174547 69 101 3.0 6.0 0.00 0.00 0.00 87 1022.1
20240621174045 69 57 2.0 8.0 0.00 0.00 0.00 87 1021.9
20240621173543 69 101 3.0 7.0 0.00 0.00 0.00 87 1022.1
20240621173043 69 22 3.0 6.0 0.00 0.00 0.00 87 1022.1
20240621172543 69 114 4.0 6.0 0.00 0.00 0.00 87 1022.0
20240621172041 68 74 2.0 4.0 0.00 0.00 0.00 88 1022.2
20240621171540 68 109 3.0 6.0 0.00 0.00 0.00 88 1022.2
20240621171039 67 86 4.0 8.0 0.00 0.00 0.00 89 1022.0
20240621170538 67 121 4.0 8.0 0.00 0.00 0.00 89 1022.1
20240621170036 67 111 4.0 6.0 0.00 0.00 0.00 89 1022.4
20240621165533 67 78 4.0 4.0 0.00 0.00 0.00 89 1022.2
20240621165032 67 113 2.0 4.0 0.00 0.00 0.00 91 1022.1
20240621164530 66 124 3.0 6.0 0.00 0.00 0.00 91 1022.4
20240621164028 66 93 1.0 3.0 0.00 0.00 0.00 92 1022.5
20240621163527 66 110 3.0 4.0 0.00 0.00 0.00 91 1022.4
20240621163026 66 161 1.0 3.0 0.00 0.00 0.00 91 1022.6
20240621162521 66 120 4.0 4.0 0.00 0.00 0.00 92 1022.6
20240621162020 66 97 2.0 3.0 0.00 0.00 0.00 92 1022.6
20240621161517 66 71 3.0 4.0 0.00 0.00 0.00 92 1022.6
20240621161016 65 79 4.0 4.0 0.00 0.00 0.00 93 1022.5
20240621160515 65 213 1.0 4.0 0.00 0.00 0.00 93 1022.6
20240621160014 65 121 3.0 4.0 0.00 0.00 0.00 93 1022.8
20240621155512 65 35 3.0 4.0 0.00 0.00 0.00 93 1022.9
20240621155012 65 96 3.0 4.0 0.00 0.00 0.00 93 1022.8
20240621154511 65 147 2.0 3.0 0.00 0.00 0.00 94 1022.9
20240621154010 65 114 1.0 3.0 0.00 0.00 0.00 94 1022.8
20240621153509 64 79 2.0 4.0 0.00 0.00 0.00 94 1023.1
20240621153008 64 103 2.0 7.0 0.00 0.00 0.00 94 1022.9
20240621152504 65 106 2.0 4.0 0.00 0.00 0.00 94 1023.0
20240621152002 64 52 1.0 2.0 0.00 0.00 0.00 94 1023.1
20240621151501 64 100 3.0 7.0 0.00 0.00 0.00 94 1023.0
20240621151000 64 88 2.0 6.0 0.00 0.00 0.00 94 1023.1
20240621150459 64 90 4.0 6.0 0.00 0.00 0.00 94 1023.3
20240621145956 64 66 2.0 3.0 0.00 0.00 0.00 94 1023.3
20240621145455 64 79 2.0 3.0 0.00 0.00 0.00 94 1023.2
20240621144953 64 99 1.0 4.0 0.00 0.00 0.00 94 1023.5
20240621144453 64 93 4.0 4.0 0.00 0.00 0.00 94 1023.4
20240621143952 64 73 2.0 3.0 0.00 0.00 0.00 94 1023.4
20240621143448 64 99 1.0 2.0 0.00 0.00 0.00 95 1023.2
20240621142944 64 83 2.0 2.0 0.00 0.00 0.00 95 1023.3
20240621142443 63 121 0.0 4.0 0.00 0.00 0.00 95 1023.3
20240621141942 63 173 1.0 3.0 0.00 0.00 0.00 95 1023.3
20240621141441 63 88 1.0 4.0 0.00 0.00 0.00 95 1023.1
20240621140940 63 100 3.0 4.0 0.00 0.00 0.00 95 1023.1
20240621140439 63 91 3.0 6.0 0.00 0.00 0.00 94 1023.1
20240621135937 63 44 4.0 6.0 0.00 0.00 0.00 95 1022.9
20240621135436 63 86 0.0 3.0 0.00 0.00 0.00 95 1023.2
20240621134934 63 66 1.0 3.0 0.00 0.00 0.00 95 1023.0
20240621134432 62 76 3.0 4.0 0.00 0.00 0.00 95 1022.9
20240621133931 62 113 3.0 3.0 0.00 0.00 0.00 95 1023.1
20240621133430 62 92 2.0 7.0 0.00 0.00 0.00 95 1023.1
20240621132928 62 79 1.0 3.0 0.00 0.00 0.00 96 1023.1
20240621132427 62 129 1.0 4.0 0.00 0.00 0.00 96 1023.1
20240621131925 62 101 2.0 3.0 0.00 0.00 0.00 96 1023.1
20240621131425 62 60 2.0 3.0 0.00 0.00 0.00 96 1022.8
20240621130925 62 76 2.0 8.0 0.00 0.00 0.00 95 1022.9
20240621130424 62 127 1.0 7.0 0.00 0.00 0.00 96 1023.1
20240621125922 62 67 3.0 4.0 0.00 0.00 0.00 96 1022.9
20240621125422 62 120 3.0 7.0 0.00 0.00 0.00 96 1023.0
20240621124921 62 99 3.0 6.0 0.00 0.00 0.00 96 1022.8
20240621124420 62 77 0.0 3.0 0.00 0.00 0.00 96 1022.9
20240621123918 62 76 3.0 7.0 0.00 0.00 0.00 96 1022.9
20240621123418 62 109 3.0 4.0 0.00 0.00 0.00 96 1023.0
20240621122917 62 80 4.0 4.0 0.00 0.00 0.00 96 1022.9
20240621122415 62 81 2.0 6.0 0.00 0.00 0.00 96 1022.9
20240621121914 62 71 2.0 2.0 0.00 0.00 0.00 96 1023.1
20240621121413 62 111 2.0 3.0 0.00 0.00 0.00 96 1022.9
20240621120912 62 91 3.0 4.0 0.00 0.00 0.00 96 1022.7
20240621120410 62 59 2.0 7.0 0.00 0.00 0.00 96 1023.0
20240621115910 62 34 3.0 6.0 0.00 0.00 0.00 96 1022.8
20240621115409 62 97 3.0 4.0 0.00 0.00 0.00 97 1023.0
20240621114908 62 115 1.0 3.0 0.00 0.00 0.00 97 1023.1
20240621114406 62 119 2.0 2.0 0.00 0.00 0.00 96 1023.4
20240621113905 62 65 2.0 3.0 0.00 0.00 0.00 97 1023.4
20240621113404 62 63 4.0 7.0 0.00 0.00 0.00 97 1023.2
20240621112903 62 87 2.0 6.0 0.00 0.00 0.00 97 1023.1
20240621112401 62 82 1.0 3.0 0.00 0.00 0.00 97 1023.4
20240621111859 62 90 2.0 4.0 0.00 0.00 0.00 97 1023.3
20240621111357 62 83 2.0 3.0 0.00 0.00 0.00 97 1023.3
20240621110855 62 88 1.0 2.0 0.00 0.00 0.00 96 1023.3
20240621110353 62 88 2.0 2.0 0.00 0.00 0.00 96 1023.2
20240621105852 62 52 0.0 3.0 0.00 0.00 0.00 96 1023.3
20240621105350 62 66 5.0 7.0 0.00 0.00 0.00 96 1023.6
20240621104847 62 30 2.0 3.0 0.00 0.00 0.00 96 1023.7
20240621104345 62 142 1.0 2.0 0.00 0.00 0.00 96 1023.8
20240621103843 62 126 0.0 3.0 0.00 0.00 0.00 96 1023.6
20240621103342 62 126 0.0 2.0 0.00 0.00 0.00 96 1023.6
20240621102841 62 112 2.0 2.0 0.00 0.00 0.00 96 1023.6
20240621102340 62 94 3.0 4.0 0.00 0.00 0.00 96 1023.6
20240621101839 62 130 1.0 1.0 0.00 0.00 0.00 96 1023.6
20240621101337 62 103 2.0 3.0 0.00 0.00 0.00 96 1023.8
20240621100836 62 158 1.0 1.0 0.00 0.00 0.00 96 1023.6
20240621100335 61 139 0.0 1.0 0.00 0.00 0.00 96 1023.6
20240621095834 61 93 0.0 2.0 0.00 0.00 0.00 96 1023.6
20240621095333 61 101 2.0 3.0 0.00 0.00 0.00 96 1023.6
20240621094831 61 115 1.0 2.0 0.00 0.00 0.00 96 1023.6
20240621094330 61 85 0.0 2.0 0.00 0.00 0.00 96 1023.5
20240621093829 61 106 1.0 3.0 0.00 0.00 0.00 96 1023.7
20240621093327 61 103 0.0 3.0 0.00 0.00 0.00 96 1023.6
20240621092827 61 125 0.0 2.0 0.00 0.00 0.00 96 1023.5
20240621092325 61 81 2.0 3.0 0.00 0.00 0.00 96 1023.3
20240621091823 61 105 2.0 4.0 0.00 0.00 0.00 95 1023.5
20240621091321 61 111 2.0 3.0 0.00 0.00 0.00 95 1023.8
20240621090820 61 125 1.0 3.0 0.00 0.00 0.00 95 1023.7
20240621090318 61 124 1.0 3.0 0.00 0.00 0.00 95 1024.1
20240621085816 61 120 1.0 2.0 0.00 0.00 0.00 95 1024.3
20240621085315 61 120 0.0 1.0 0.00 0.00 0.00 95 1024.3
20240621084814 61 31 1.0 2.0 0.00 0.00 0.00 95 1024.3
20240621084312 61 102 1.0 2.0 0.00 0.00 0.00 95 1024.2
20240621083810 61 108 1.0 2.0 0.00 0.00 0.00 95 1024.1
20240621083310 61 114 1.0 1.0 0.00 0.00 0.00 95 1024.4
20240621082810 61 74 1.0 1.0 0.00 0.00 0.00 95 1024.5
20240621082309 60 107 1.0 3.0 0.00 0.00 0.00 95 1024.3
20240621081809 60 124 1.0 2.0 0.00 0.00 0.00 95 1024.4
20240621081308 60 122 0.0 1.0 0.00 0.00 0.00 95 1024.6
20240621080806 60 145 0.0 0.0 0.00 0.00 0.00 95 1024.5
20240621080303 60 122 0.0 1.0 0.00 0.00 0.00 95 1024.3
20240621075802 60 99 0.0 1.0 0.00 0.00 0.00 95 1024.5
20240621075301 60 90 0.0 2.0 0.00 0.00 0.00 94 1024.5
20240621074757 60 115 0.0 1.0 0.00 0.00 0.00 94 1024.4
20240621074257 60 118 2.0 3.0 0.00 0.00 0.00 94 1024.4
20240621073756 60 94 0.0 1.0 0.00 0.00 0.00 94 1024.5
20240621073255 60 110 0.0 1.0 0.00 0.00 0.00 94 1024.5
20240621072754 60 84 0.0 1.0 0.00 0.00 0.00 94 1024.5
20240621072253 60 117 0.0 1.0 0.00 0.00 0.00 94 1024.6
20240621071751 60 87 2.0 2.0 0.00 0.00 0.00 94 1024.4
20240621071250 60 117 1.0 2.0 0.00 0.00 0.00 94 1024.7
20240621070748 60 111 1.0 1.0 0.00 0.00 0.00 94 1024.9
20240621070248 60 113 0.0 0.0 0.00 0.00 0.00 93 1024.7
20240621065746 60 138 0.0 1.0 0.00 0.00 0.00 93 1024.9
20240621065244 60 118 1.0 2.0 0.00 0.00 0.00 93 1024.9
20240621064743 60 114 0.0 1.0 0.00 0.00 0.00 93 1025.1
20240621064242 60 128 0.0 0.0 0.00 0.00 0.00 93 1024.9
20240621063740 61 121 1.0 1.0 0.00 0.00 0.00 92 1024.9
20240621063240 61 129 0.0 0.0 0.00 0.00 0.00 92 1025.1
20240621062739 61 105 0.0 1.0 0.00 0.00 0.00 92 1024.7
20240621062238 60 84 0.0 1.0 0.00 0.00 0.00 92 1024.6
20240621061737 61 116 0.0 1.0 0.00 0.00 0.00 92 1024.9
20240621061236 61 135 0.0 0.0 0.00 0.00 0.00 91 1024.9
20240621060734 61 76 1.0 2.0 0.00 0.00 0.00 91 1025.2
20240621060232 61 136 0.0 1.0 0.00 0.00 0.00 91 1024.9
20240621055730 61 100 0.0 1.0 0.00 0.00 0.00 91 1025.2
20240621055229 61 122 0.0 2.0 0.00 0.00 0.00 90 1025.2
20240621054728 61 123 1.0 1.0 0.00 0.00 0.00 91 1025.1
20240621054227 61 93 1.0 2.0 0.00 0.00 0.00 91 1025.2
20240621053727 60 114 0.0 0.0 0.00 0.00 0.00 90 1025.3
20240621053225 61 110 0.0 0.0 0.00 0.00 0.00 90 1025.3
20240621052725 61 110 0.0 0.0 0.00 0.00 0.00 90 1025.3
20240621052224 61 107 0.0 1.0 0.00 0.00 0.00 89 1025.3
20240621051723 61 119 0.0 1.0 0.00 0.00 0.00 89 1025.3
20240621051221 61 105 0.0 3.0 0.00 0.00 0.00 88 1025.4
20240621050721 61 130 0.0 2.0 0.00 0.00 0.00 88 1025.3
20240621050220 61 128 1.0 2.0 0.00 0.00 0.00 88 1025.4
20240621045720 61 100 1.0 1.0 0.00 0.05 0.05 88 1025.5
20240621045217 61 113 0.0 2.0 0.00 0.05 0.05 88 1025.5
20240621044716 62 96 0.0 2.0 0.00 0.05 0.05 87 1025.4
20240621044215 61 107 1.0 1.0 0.00 0.05 0.05 87 1025.3
20240621043714 61 142 0.0 1.0 0.00 0.05 0.05 87 1025.4
20240621043212 61 122 1.0 2.0 0.00 0.05 0.05 87 1025.3
20240621042710 61 111 1.0 2.0 0.00 0.05 0.05 87 1025.6
20240621042209 60 129 0.0 0.0 0.00 0.05 0.05 89 1025.3
20240621041707 60 128 0.0 0.0 0.00 0.05 0.05 89 1025.2
20240621041207 60 121 0.0 0.0 0.00 0.05 0.05 89 1025.2
20240621040705 60 133 0.0 0.0 0.00 0.05 0.05 90 1025.5
20240621040204 60 133 0.0 0.0 0.00 0.05 0.05 90 1025.4
20240621035703 60 104 0.0 0.0 0.00 0.05 0.05 91 1025.5
20240621035203 60 145 0.0 0.0 0.00 0.05 0.05 91 1025.2
20240621034704 60 125 0.0 0.0 0.00 0.05 0.05 90 1025.2
20240621034202 60 131 0.0 0.0 0.00 0.05 0.05 90 1025.2
20240621033702 60 131 0.0 1.0 0.00 0.05 0.05 89 1025.2
20240621033158 60 123 0.0 0.0 0.00 0.05 0.05 88 1025.2
20240621032656 61 116 0.0 1.0 0.00 0.05 0.05 87 1025.2
20240621032155 61 88 0.0 1.0 0.00 0.05 0.05 86 1025.3
20240621031653 61 116 0.0 0.0 0.00 0.05 0.05 86 1025.5
20240621031153 62 112 0.0 0.0 0.00 0.05 0.05 84 1025.4
20240621030652 62 114 0.0 0.0 0.00 0.05 0.05 85 1025.6
20240621030152 62 112 0.0 2.0 0.00 0.05 0.05 84 1025.3
20240621025651 63 122 0.0 0.0 0.00 0.05 0.05 82 1025.5
20240621025149 63 115 0.0 1.0 0.00 0.05 0.05 81 1025.3
20240621024648 63 141 0.0 2.0 0.00 0.05 0.05 81 1025.2
20240621024147 63 114 0.0 1.0 0.00 0.05 0.05 82 1025.3
20240621023646 63 128 0.0 1.0 0.00 0.05 0.05 81 1025.1
20240621023145 64 120 0.0 0.0 0.00 0.05 0.05 79 1025.4
20240621022643 64 149 0.0 1.0 0.00 0.05 0.05 78 1025.3
20240621022142 64 115 1.0 2.0 0.00 0.05 0.05 78 1025.0
20240621021641 64 126 1.0 3.0 0.00 0.05 0.05 77 1025.2
20240621021140 65 116 0.0 2.0 0.00 0.05 0.05 77 1025.1
20240621020639 65 87 1.0 2.0 0.00 0.05 0.05 77 1025.2
20240621020137 65 104 0.0 0.0 0.00 0.05 0.05 76 1025.4
20240621015636 65 136 0.0 1.0 0.00 0.05 0.05 76 1025.3
20240621015135 66 105 1.0 3.0 0.00 0.05 0.05 75 1025.2
20240621014633 66 115 0.0 1.0 0.00 0.05 0.05 75 1025.5
20240621014131 66 133 0.0 1.0 0.00 0.05 0.05 75 1025.4
20240621013629 67 86 1.0 1.0 0.00 0.05 0.05 73 1025.3
20240621013127 67 126 0.0 1.0 0.00 0.05 0.05 73 1025.5
20240621012625 66 85 1.0 1.0 0.00 0.05 0.05 72 1025.6
20240621012123 67 92 2.0 2.0 0.00 0.05 0.05 72 1025.3
20240621011621 67 62 3.0 3.0 0.00 0.05 0.05 72 1025.0
20240621011121 67 103 0.0 3.0 0.00 0.05 0.05 73 1024.9
20240621010620 67 112 2.0 3.0 0.00 0.05 0.05 72 1025.0
20240621010118 67 80 3.0 6.0 0.00 0.05 0.05 72 1024.6
20240621005618 67 82 4.0 4.0 0.00 0.05 0.05 71 1024.7
20240621005117 67 80 1.0 6.0 0.00 0.05 0.05 72 1024.9
20240621004616 67 91 2.0 3.0 0.00 0.05 0.05 72 1025.1
20240621004114 67 106 2.0 2.0 0.00 0.05 0.05 71 1025.3
20240621003612 67 90 1.0 2.0 0.00 0.05 0.05 70 1025.3
20240621003111 67 95 1.0 3.0 0.00 0.05 0.05 70 1025.4
20240621002610 67 108 1.0 3.0 0.00 0.05 0.05 70 1025.4
20240621002108 67 155 0.0 1.0 0.00 0.05 0.05 70 1025.5
20240621001607 67 97 1.0 2.0 0.00 0.05 0.05 69 1025.7
20240621001105 67 80 1.0 1.0 0.00 0.05 0.05 69 1026.0
20240621000603 67 142 2.0 3.0 0.00 0.05 0.05 70 1026.1
20240621000103 67 127 0.0 1.0 0.00 0.05 0.05 72 1026.2
20240620235559 68 98 1.0 1.0 0.00 0.05 0.05 69 1026.2
20240620235059 68 109 1.0 2.0 0.00 0.05 0.05 67 1026.5
20240620234558 69 157 0.0 1.0 0.00 0.05 0.05 65 1026.6
20240620234058 69 159 0.0 0.0 0.00 0.05 0.05 67 1026.8
20240620233557 69 134 0.0 2.0 0.00 0.05 0.05 67 1027.2
20240620233055 69 100 1.0 1.0 0.00 0.05 0.05 65 1027.2
20240620232553 69 185 1.0 3.0 0.00 0.05 0.05 65 1027.2